sensor_id;sensor_type;location;lat;lon;timestamp;pressure;altitude;pressure_sealevel;temperature;humidity
29825;BME280;16713;52.916;12.834;2022-09-12T00:01:13;101189.59;;;14.09;77.36
29825;BME280;16713;52.916;12.834;2022-09-12T00:03:40;101183.84;;;14.17;77.34
29825;BME280;16713;52.916;12.834;2022-09-12T00:06:07;101188.16;;;14.15;76.92
29825;BME280;16713;52.916;12.834;2022-09-12T00:08:34;101181.34;;;13.90;77.39
29825;BME280;16713;52.916;12.834;2022-09-12T00:11:03;101178.91;;;13.85;76.55
29825;BME280;16713;52.916;12.834;2022-09-12T00:13:30;101177.53;;;13.94;77.80
29825;BME280;16713;52.916;12.834;2022-09-12T00:15:56;101180.47;;;14.05;76.73
29825;BME280;16713;52.916;12.834;2022-09-12T00:18:23;101182.44;;;14.27;75.26
29825;BME280;16713;52.916;12.834;2022-09-12T00:20:49;101182.56;;;14.34;75.61
29825;BME280;16713;52.916;12.834;2022-09-12T00:23:15;101176.84;;;14.23;75.71
29825;BME280;16713;52.916;12.834;2022-09-12T00:25:45;101179.88;;;14.15;76.05
29825;BME280;16713;52.916;12.834;2022-09-12T00:28:12;101181.31;;;14.09;76.99
29825;BME280;16713;52.916;12.834;2022-09-12T00:30:40;101173.47;;;14.11;76.71
29825;BME280;16713;52.916;12.834;2022-09-12T00:33:07;101173.59;;;13.95;76.29
29825;BME280;16713;52.916;12.834;2022-09-12T00:35:33;101166.50;;;13.75;76.70
29825;BME280;16713;52.916;12.834;2022-09-12T00:38:00;101175.44;;;13.88;77.74
29825;BME280;16713;52.916;12.834;2022-09-12T00:40:26;101170.78;;;13.73;77.20
29825;BME280;16713;52.916;12.834;2022-09-12T00:42:53;101169.50;;;13.67;77.29
29825;BME280;16713;52.916;12.834;2022-09-12T00:45:22;101163.81;;;13.41;78.74
29825;BME280;16713;52.916;12.834;2022-09-12T00:47:49;101169.50;;;13.48;78.19
29825;BME280;16713;52.916;12.834;2022-09-12T00:50:15;101162.72;;;13.26;78.43
29825;BME280;16713;52.916;12.834;2022-09-12T00:52:46;101164.66;;;13.25;79.53
29825;BME280;16713;52.916;12.834;2022-09-12T00:55:16;101152.72;;;13.18;79.42
29825;BME280;16713;52.916;12.834;2022-09-12T00:57:48;101169.75;;;13.23;80.41
29825;BME280;16713;52.916;12.834;2022-09-12T01:00:17;101167.94;;;13.12;79.47
29825;BME280;16713;52.916;12.834;2022-09-12T01:02:48;101159.03;;;13.18;79.09
29825;BME280;16713;52.916;12.834;2022-09-12T01:05:16;101153.63;;;13.06;80.65
29825;BME280;16713;52.916;12.834;2022-09-12T01:07:42;101156.03;;;13.08;79.29
29825;BME280;16713;52.916;12.834;2022-09-12T01:10:10;101146.81;;;13.00;80.90
29825;BME280;16713;52.916;12.834;2022-09-12T01:12:37;101149.50;;;12.97;80.90
29825;BME280;16713;52.916;12.834;2022-09-12T01:15:04;101142.34;;;13.11;80.10
29825;BME280;16713;52.916;12.834;2022-09-12T01:17:33;101144.00;;;12.97;81.14
29825;BME280;16713;52.916;12.834;2022-09-12T01:22:50;101141.78;;;12.87;80.97
29825;BME280;16713;52.916;12.834;2022-09-12T01:25:29;101139.34;;;12.82;81.00
29825;BME280;16713;52.916;12.834;2022-09-12T01:33:14;101140.28;;;12.89;79.68
29825;BME280;16713;52.916;12.834;2022-09-12T01:35:45;101143.44;;;13.26;78.72
29825;BME280;16713;52.916;12.834;2022-09-12T01:43:22;101148.44;;;13.59;75.17
29825;BME280;16713;52.916;12.834;2022-09-12T01:45:55;101153.81;;;13.71;74.32
29825;BME280;16713;52.916;12.834;2022-09-12T01:48:25;101151.50;;;13.73;74.11
29825;BME280;16713;52.916;12.834;2022-09-12T01:53:26;101152.59;;;13.68;73.77
29825;BME280;16713;52.916;12.834;2022-09-12T01:55:59;101149.84;;;13.68;75.08
29825;BME280;16713;52.916;12.834;2022-09-12T01:58:27;101152.22;;;13.70;73.75
29825;BME280;16713;52.916;12.834;2022-09-12T02:01:00;101154.81;;;13.63;73.88
29825;BME280;16713;52.916;12.834;2022-09-12T02:03:31;101160.88;;;13.68;74.29
29825;BME280;16713;52.916;12.834;2022-09-12T02:06:01;101155.84;;;13.55;74.65
29825;BME280;16713;52.916;12.834;2022-09-12T02:08:32;101156.00;;;13.43;75.81
29825;BME280;16713;52.916;12.834;2022-09-12T02:16:06;101160.63;;;13.58;75.42
29825;BME280;16713;52.916;12.834;2022-09-12T02:18:37;101156.41;;;13.45;76.02
29825;BME280;16713;52.916;12.834;2022-09-12T02:21:05;101155.25;;;13.46;76.87
29825;BME280;16713;52.916;12.834;2022-09-12T02:23:31;101148.75;;;13.15;78.20
29825;BME280;16713;52.916;12.834;2022-09-12T02:26:01;101149.38;;;13.09;77.40
29825;BME280;16713;52.916;12.834;2022-09-12T02:28:31;101160.75;;;13.07;78.81
29825;BME280;16713;52.916;12.834;2022-09-12T02:36:31;101147.09;;;12.95;80.45
29825;BME280;16713;52.916;12.834;2022-09-12T02:38:59;101140.88;;;13.17;79.06
29825;BME280;16713;52.916;12.834;2022-09-12T02:41:25;101146.13;;;13.42;76.50
29825;BME280;16713;52.916;12.834;2022-09-12T02:43:52;101148.16;;;13.64;76.43
29825;BME280;16713;52.916;12.834;2022-09-12T02:46:20;101146.28;;;13.49;74.46
29825;BME280;16713;52.916;12.834;2022-09-12T02:48:47;101147.38;;;13.44;75.31
29825;BME280;16713;52.916;12.834;2022-09-12T02:51:14;101141.91;;;13.09;76.27
29825;BME280;16713;52.916;12.834;2022-09-12T02:53:46;101148.84;;;13.03;79.10
29825;BME280;16713;52.916;12.834;2022-09-12T02:56:15;101149.91;;;12.80;78.06
29825;BME280;16713;52.916;12.834;2022-09-12T02:58:43;101151.31;;;12.58;79.90
29825;BME280;16713;52.916;12.834;2022-09-12T03:06:17;101139.94;;;12.60;80.19
29825;BME280;16713;52.916;12.834;2022-09-12T03:09:03;101135.81;;;12.66;79.50
29825;BME280;16713;52.916;12.834;2022-09-12T03:14:11;101137.41;;;12.51;79.74
29825;BME280;16713;52.916;12.834;2022-09-12T03:16:45;101138.47;;;12.47;80.51
29825;BME280;16713;52.916;12.834;2022-09-12T03:22:00;101128.53;;;12.42;80.34
29825;BME280;16713;52.916;12.834;2022-09-12T03:24:33;101129.16;;;12.36;80.60
29825;BME280;16713;52.916;12.834;2022-09-12T03:29:29;101131.13;;;12.35;80.91
29825;BME280;16713;52.916;12.834;2022-09-12T03:31:57;101130.56;;;12.45;81.12
29825;BME280;16713;52.916;12.834;2022-09-12T03:34:24;101126.75;;;12.34;80.79
29825;BME280;16713;52.916;12.834;2022-09-12T03:36:52;101129.34;;;12.27;81.14
29825;BME280;16713;52.916;12.834;2022-09-12T03:39:20;101132.09;;;12.43;81.77
29825;BME280;16713;52.916;12.834;2022-09-12T03:41:49;101124.28;;;12.29;81.73
29825;BME280;16713;52.916;12.834;2022-09-12T03:44:16;101127.31;;;12.40;80.65
29825;BME280;16713;52.916;12.834;2022-09-12T03:46:42;101125.56;;;12.82;79.33
29825;BME280;16713;52.916;12.834;2022-09-12T03:49:09;101134.06;;;13.11;76.32
29825;BME280;16713;52.916;12.834;2022-09-12T03:51:36;101136.63;;;13.20;75.46
29825;BME280;16713;52.916;12.834;2022-09-12T03:54:02;101137.13;;;13.25;74.39
29825;BME280;16713;52.916;12.834;2022-09-12T03:56:29;101137.94;;;13.26;74.13
29825;BME280;16713;52.916;12.834;2022-09-12T03:58:55;101141.84;;;13.25;74.48
29825;BME280;16713;52.916;12.834;2022-09-12T04:01:22;101145.84;;;13.27;73.11
29825;BME280;16713;52.916;12.834;2022-09-12T04:03:50;101142.13;;;13.20;72.59
29825;BME280;16713;52.916;12.834;2022-09-12T04:06:20;101149.59;;;13.19;74.00
29825;BME280;16713;52.916;12.834;2022-09-12T04:08:47;101139.22;;;13.13;73.64
29825;BME280;16713;52.916;12.834;2022-09-12T04:11:16;101147.84;;;13.11;73.94
29825;BME280;16713;52.916;12.834;2022-09-12T04:13:42;101145.47;;;13.10;72.53
29825;BME280;16713;52.916;12.834;2022-09-12T04:16:10;101146.19;;;13.07;73.64
29825;BME280;16713;52.916;12.834;2022-09-12T04:18:37;101147.28;;;13.02;73.14
29825;BME280;16713;52.916;12.834;2022-09-12T04:21:08;101157.13;;;13.03;73.04
29825;BME280;16713;52.916;12.834;2022-09-12T04:23:34;101153.91;;;13.01;73.02
29825;BME280;16713;52.916;12.834;2022-09-12T04:26:01;101158.66;;;13.01;72.28
29825;BME280;16713;52.916;12.834;2022-09-12T04:28:28;101156.66;;;13.01;73.61
29825;BME280;16713;52.916;12.834;2022-09-12T04:30:55;101153.88;;;12.98;72.97
29825;BME280;16713;52.916;12.834;2022-09-12T04:33:23;101160.06;;;12.95;72.89
29825;BME280;16713;52.916;12.834;2022-09-12T04:35:49;101149.34;;;12.90;72.74
29825;BME280;16713;52.916;12.834;2022-09-12T04:38:15;101155.78;;;12.78;72.70
29825;BME280;16713;52.916;12.834;2022-09-12T04:40:42;101157.28;;;12.76;72.02
29825;BME280;16713;52.916;12.834;2022-09-12T04:43:08;101155.22;;;12.73;72.85
29825;BME280;16713;52.916;12.834;2022-09-12T04:45:39;101160.22;;;12.67;72.45
29825;BME280;16713;52.916;12.834;2022-09-12T04:48:06;101159.94;;;12.72;72.34
29825;BME280;16713;52.916;12.834;2022-09-12T04:50:32;101167.50;;;12.75;72.80
29825;BME280;16713;52.916;12.834;2022-09-12T04:52:58;101170.94;;;12.72;72.71
29825;BME280;16713;52.916;12.834;2022-09-12T04:55:25;101172.91;;;12.72;72.67
29825;BME280;16713;52.916;12.834;2022-09-12T04:57:51;101171.47;;;12.62;72.90
29825;BME280;16713;52.916;12.834;2022-09-12T05:00:18;101179.06;;;12.65;72.97
29825;BME280;16713;52.916;12.834;2022-09-12T05:02:44;101176.34;;;12.53;72.62
29825;BME280;16713;52.916;12.834;2022-09-12T05:05:11;101172.19;;;12.59;73.81
29825;BME280;16713;52.916;12.834;2022-09-12T05:07:37;101181.13;;;12.56;73.81
29825;BME280;16713;52.916;12.834;2022-09-12T05:10:07;101176.81;;;12.55;73.11
29825;BME280;16713;52.916;12.834;2022-09-12T05:12:33;101184.19;;;12.51;73.96
29825;BME280;16713;52.916;12.834;2022-09-12T05:15:01;101177.88;;;12.51;73.75
29825;BME280;16713;52.916;12.834;2022-09-12T05:17:28;101182.31;;;12.55;73.84
29825;BME280;16713;52.916;12.834;2022-09-12T05:19:54;101186.50;;;12.49;74.12
29825;BME280;16713;52.916;12.834;2022-09-12T05:22:21;101186.84;;;12.48;75.51
29825;BME280;16713;52.916;12.834;2022-09-12T05:24:47;101186.16;;;12.35;75.19
29825;BME280;16713;52.916;12.834;2022-09-12T05:27:15;101187.63;;;12.33;75.82
29825;BME280;16713;52.916;12.834;2022-09-12T05:29:42;101186.03;;;12.32;75.21
29825;BME280;16713;52.916;12.834;2022-09-12T05:32:08;101178.56;;;12.32;76.14
29825;BME280;16713;52.916;12.834;2022-09-12T05:34:34;101183.91;;;12.25;76.41
29825;BME280;16713;52.916;12.834;2022-09-12T05:37:03;101190.63;;;12.12;76.93
29825;BME280;16713;52.916;12.834;2022-09-12T05:39:29;101184.78;;;12.14;78.22
29825;BME280;16713;52.916;12.834;2022-09-12T05:41:55;101187.63;;;12.02;78.24
29825;BME280;16713;52.916;12.834;2022-09-12T05:44:21;101192.47;;;11.92;79.87
29825;BME280;16713;52.916;12.834;2022-09-12T05:46:48;101196.16;;;11.84;81.19
29825;BME280;16713;52.916;12.834;2022-09-12T05:49:16;101189.53;;;11.85;81.49
29825;BME280;16713;52.916;12.834;2022-09-12T05:51:43;101195.31;;;11.96;81.64
29825;BME280;16713;52.916;12.834;2022-09-12T05:54:11;101195.81;;;11.86;82.69
29825;BME280;16713;52.916;12.834;2022-09-12T05:56:38;101191.03;;;11.83;82.87
29825;BME280;16713;52.916;12.834;2022-09-12T05:59:06;101188.16;;;12.07;82.55
29825;BME280;16713;52.916;12.834;2022-09-12T06:01:33;101195.69;;;12.10;83.16
29825;BME280;16713;52.916;12.834;2022-09-12T06:04:00;101191.34;;;12.09;82.98
29825;BME280;16713;52.916;12.834;2022-09-12T06:06:28;101194.38;;;12.20;83.63
29825;BME280;16713;52.916;12.834;2022-09-12T06:08:55;101191.72;;;12.39;82.27
29825;BME280;16713;52.916;12.834;2022-09-12T06:11:23;101184.72;;;12.41;82.05
29825;BME280;16713;52.916;12.834;2022-09-12T06:13:54;101182.84;;;12.45;81.83
29825;BME280;16713;52.916;12.834;2022-09-12T06:16:21;101182.84;;;12.61;81.94
29825;BME280;16713;52.916;12.834;2022-09-12T06:18:49;101177.06;;;12.81;82.21
29825;BME280;16713;52.916;12.834;2022-09-12T06:21:15;101177.88;;;12.82;81.22
29825;BME280;16713;52.916;12.834;2022-09-12T06:23:42;101175.63;;;12.87;81.71
29825;BME280;16713;52.916;12.834;2022-09-12T06:26:09;101180.19;;;12.80;82.08
29825;BME280;16713;52.916;12.834;2022-09-12T06:28:36;101176.81;;;12.86;82.24
29825;BME280;16713;52.916;12.834;2022-09-12T06:31:10;101177.47;;;12.99;81.66
29825;BME280;16713;52.916;12.834;2022-09-12T06:33:38;101180.53;;;12.78;82.65
29825;BME280;16713;52.916;12.834;2022-09-12T06:36:09;101167.13;;;12.77;83.04
29825;BME280;16713;52.916;12.834;2022-09-12T06:38:38;101168.28;;;12.76;83.13
29825;BME280;16713;52.916;12.834;2022-09-12T06:41:05;101172.81;;;12.68;83.89
29825;BME280;16713;52.916;12.834;2022-09-12T06:43:32;101173.00;;;12.75;83.09
29825;BME280;16713;52.916;12.834;2022-09-12T06:45:59;101169.94;;;12.80;82.41
29825;BME280;16713;52.916;12.834;2022-09-12T06:48:25;101167.38;;;12.87;82.70
29825;BME280;16713;52.916;12.834;2022-09-12T06:50:56;101168.09;;;12.84;82.70
29825;BME280;16713;52.916;12.834;2022-09-12T06:53:24;101168.63;;;12.74;83.03
29825;BME280;16713;52.916;12.834;2022-09-12T06:55:57;101168.72;;;12.78;83.80
29825;BME280;16713;52.916;12.834;2022-09-12T06:58:24;101158.03;;;12.92;84.43
29825;BME280;16713;52.916;12.834;2022-09-12T07:00:50;101161.38;;;12.82;84.47
29825;BME280;16713;52.916;12.834;2022-09-12T07:03:23;101156.41;;;12.72;85.29
29825;BME280;16713;52.916;12.834;2022-09-12T07:05:49;101154.09;;;12.74;84.80
29825;BME280;16713;52.916;12.834;2022-09-12T07:08:16;101152.84;;;12.71;85.25
29825;BME280;16713;52.916;12.834;2022-09-12T07:10:42;101160.19;;;12.83;86.71
29825;BME280;16713;52.916;12.834;2022-09-12T07:13:09;101155.16;;;12.69;87.56
29825;BME280;16713;52.916;12.834;2022-09-12T07:15:35;101156.03;;;12.73;86.89
29825;BME280;16713;52.916;12.834;2022-09-12T07:18:02;101150.94;;;12.91;87.93
29825;BME280;16713;52.916;12.834;2022-09-12T07:20:28;101158.03;;;12.92;88.58
29825;BME280;16713;52.916;12.834;2022-09-12T07:22:58;101152.34;;;13.00;88.54
29825;BME280;16713;52.916;12.834;2022-09-12T07:25:25;101148.28;;;12.94;87.79
29825;BME280;16713;52.916;12.834;2022-09-12T07:27:52;101153.53;;;13.18;87.35
29825;BME280;16713;52.916;12.834;2022-09-12T07:30:18;101157.50;;;13.21;87.68
29825;BME280;16713;52.916;12.834;2022-09-12T07:32:45;101157.28;;;13.29;88.47
29825;BME280;16713;52.916;12.834;2022-09-12T07:35:11;101154.19;;;13.31;88.32
29825;BME280;16713;52.916;12.834;2022-09-12T07:37:37;101160.06;;;13.68;87.13
29825;BME280;16713;52.916;12.834;2022-09-12T07:40:04;101157.00;;;13.73;88.21
29825;BME280;16713;52.916;12.834;2022-09-12T07:42:30;101150.09;;;13.63;87.33
29825;BME280;16713;52.916;12.834;2022-09-12T07:44:57;101158.44;;;13.86;87.24
29825;BME280;16713;52.916;12.834;2022-09-12T07:47:23;101152.41;;;13.80;87.37
29825;BME280;16713;52.916;12.834;2022-09-12T07:49:49;101166.16;;;13.99;87.71
29825;BME280;16713;52.916;12.834;2022-09-12T07:52:17;101154.38;;;13.61;83.34
29825;BME280;16713;52.916;12.834;2022-09-12T07:54:44;101162.53;;;13.73;85.67
29825;BME280;16713;52.916;12.834;2022-09-12T07:57:10;101161.97;;;14.05;85.38
29825;BME280;16713;52.916;12.834;2022-09-12T07:59:36;101173.78;;;14.28;82.80
29825;BME280;16713;52.916;12.834;2022-09-12T08:02:18;101177.22;;;14.44;81.25
29825;BME280;16713;52.916;12.834;2022-09-12T08:04:48;101177.34;;;14.51;81.02
29825;BME280;16713;52.916;12.834;2022-09-12T08:07:15;101179.19;;;14.66;79.72
29825;BME280;16713;52.916;12.834;2022-09-12T08:09:43;101176.84;;;14.68;80.32
29825;BME280;16713;52.916;12.834;2022-09-12T08:12:09;101174.63;;;14.78;81.79
29825;BME280;16713;52.916;12.834;2022-09-12T08:14:36;101187.75;;;14.84;81.24
29825;BME280;16713;52.916;12.834;2022-09-12T08:17:02;101182.63;;;14.86;81.13
29825;BME280;16713;52.916;12.834;2022-09-12T08:19:28;101180.00;;;14.93;79.25
29825;BME280;16713;52.916;12.834;2022-09-12T08:21:55;101186.78;;;14.99;81.09
29825;BME280;16713;52.916;12.834;2022-09-12T08:24:21;101187.25;;;15.05;80.52
29825;BME280;16713;52.916;12.834;2022-09-12T08:26:47;101183.81;;;15.11;80.56
29825;BME280;16713;52.916;12.834;2022-09-12T08:29:14;101187.03;;;15.17;82.02
29825;BME280;16713;52.916;12.834;2022-09-12T08:31:40;101184.00;;;15.25;81.18
29825;BME280;16713;52.916;12.834;2022-09-12T08:34:07;101186.44;;;15.30;81.47
29825;BME280;16713;52.916;12.834;2022-09-12T08:36:34;101176.13;;;15.27;80.09
29825;BME280;16713;52.916;12.834;2022-09-12T08:39:02;101174.84;;;15.21;79.56
29825;BME280;16713;52.916;12.834;2022-09-12T08:41:30;101177.78;;;15.32;79.40
29825;BME280;16713;52.916;12.834;2022-09-12T08:47:04;101189.75;;;15.43;78.34
29825;BME280;16713;52.916;12.834;2022-09-12T08:49:24;101179.06;;;15.41;77.68
29825;BME280;16713;52.916;12.834;2022-09-12T08:51:53;101179.03;;;15.38;76.34
29825;BME280;16713;52.916;12.834;2022-09-12T08:54:22;101182.91;;;15.33;76.10
29825;BME280;16713;52.916;12.834;2022-09-12T08:56:50;101182.25;;;15.43;76.06
29825;BME280;16713;52.916;12.834;2022-09-12T08:59:21;101181.41;;;15.39;76.47
29825;BME280;16713;52.916;12.834;2022-09-12T09:01:47;101187.00;;;15.43;76.28
29825;BME280;16713;52.916;12.834;2022-09-12T09:05:04;101192.53;;;15.43;75.75
29825;BME280;16713;52.916;12.834;2022-09-12T09:09:51;101173.75;;;15.55;75.93
29825;BME280;16713;52.916;12.834;2022-09-12T09:12:48;101183.47;;;15.75;74.30
29825;BME280;16713;52.916;12.834;2022-09-12T09:15:55;101192.25;;;15.84;75.96
29825;BME280;16713;52.916;12.834;2022-09-12T09:18:01;101186.00;;;15.91;75.83
29825;BME280;16713;52.916;12.834;2022-09-12T09:28:10;101185.16;;;15.83;74.35
29825;BME280;16713;52.916;12.834;2022-09-12T09:30:39;101186.31;;;15.82;74.62
29825;BME280;16713;52.916;12.834;2022-09-12T09:33:09;101186.78;;;15.88;74.41
29825;BME280;16713;52.916;12.834;2022-09-12T09:35:44;101188.44;;;15.96;74.74
29825;BME280;16713;52.916;12.834;2022-09-12T09:38:17;101184.53;;;16.00;74.58
29825;BME280;16713;52.916;12.834;2022-09-12T09:40:53;101191.03;;;16.19;74.29
29825;BME280;16713;52.916;12.834;2022-09-12T09:43:23;101193.09;;;16.25;74.45
29825;BME280;16713;52.916;12.834;2022-09-12T09:45:52;101192.75;;;16.34;74.55
29825;BME280;16713;52.916;12.834;2022-09-12T09:50:48;101188.16;;;16.45;73.23
29825;BME280;16713;52.916;12.834;2022-09-12T09:53:26;101194.13;;;16.50;71.78
29825;BME280;16713;52.916;12.834;2022-09-12T09:55:54;101195.34;;;16.53;70.17
29825;BME280;16713;52.916;12.834;2022-09-12T09:58:28;101202.88;;;16.56;70.39
29825;BME280;16713;52.916;12.834;2022-09-12T10:00:59;101202.97;;;16.66;70.04
29825;BME280;16713;52.916;12.834;2022-09-12T10:03:30;101206.47;;;16.60;70.52
29825;BME280;16713;52.916;12.834;2022-09-12T10:06:00;101207.66;;;16.59;71.82
29825;BME280;16713;52.916;12.834;2022-09-12T10:08:29;101211.97;;;16.56;71.79
29825;BME280;16713;52.916;12.834;2022-09-12T10:16:03;101204.97;;;16.69;71.83
29825;BME280;16713;52.916;12.834;2022-09-12T10:21:00;101198.38;;;16.41;70.18
29825;BME280;16713;52.916;12.834;2022-09-12T10:23:29;101210.78;;;16.54;70.13
29825;BME280;16713;52.916;12.834;2022-09-12T10:25:58;101209.56;;;16.51;69.96
29825;BME280;16713;52.916;12.834;2022-09-12T10:28:39;101206.06;;;16.61;70.24
29825;BME280;16713;52.916;12.834;2022-09-12T10:31:06;101205.59;;;16.49;70.38
29825;BME280;16713;52.916;12.834;2022-09-12T10:33:36;101212.34;;;16.55;70.44
29825;BME280;16713;52.916;12.834;2022-09-12T10:36:06;101208.34;;;16.49;69.66
29825;BME280;16713;52.916;12.834;2022-09-12T10:38:32;101200.47;;;16.51;68.79
29825;BME280;16713;52.916;12.834;2022-09-12T10:41:00;101207.34;;;16.31;68.04
29825;BME280;16713;52.916;12.834;2022-09-12T10:45:58;101198.03;;;16.46;69.16
29825;BME280;16713;52.916;12.834;2022-09-12T10:48:47;101198.94;;;16.57;69.29
29825;BME280;16713;52.916;12.834;2022-09-12T10:53:47;101199.03;;;16.71;69.26
29825;BME280;16713;52.916;12.834;2022-09-12T10:56:23;101199.69;;;16.54;69.64
29825;BME280;16713;52.916;12.834;2022-09-12T11:01:35;101197.38;;;16.59;68.66
29825;BME280;16713;52.916;12.834;2022-09-12T11:06:55;101194.16;;;16.54;66.61
29825;BME280;16713;52.916;12.834;2022-09-12T11:09:26;101195.81;;;16.62;67.28
29825;BME280;16713;52.916;12.834;2022-09-12T11:30:12;101200.13;;;16.56;66.99
29825;BME280;16713;52.916;12.834;2022-09-12T11:32:55;101204.56;;;16.71;67.90
29825;BME280;16713;52.916;12.834;2022-09-12T11:35:28;101203.88;;;16.81;66.63
29825;BME280;16713;52.916;12.834;2022-09-12T11:42:55;101204.75;;;16.95;66.81
29825;BME280;16713;52.916;12.834;2022-09-12T11:45:26;101199.28;;;17.02;66.36
29825;BME280;16713;52.916;12.834;2022-09-12T11:47:54;101198.53;;;17.09;66.16
29825;BME280;16713;52.916;12.834;2022-09-12T11:50:32;101195.38;;;17.10;66.90
29825;BME280;16713;52.916;12.834;2022-09-12T11:53:10;101189.81;;;17.10;66.91
29825;BME280;16713;52.916;12.834;2022-09-12T11:58:35;101199.81;;;17.25;66.36
29825;BME280;16713;52.916;12.834;2022-09-12T12:01:13;101197.06;;;17.29;66.48
29825;BME280;16713;52.916;12.834;2022-09-12T12:03:42;101194.31;;;17.29;65.48
29825;BME280;16713;52.916;12.834;2022-09-12T12:08:44;101191.97;;;17.34;62.93
29825;BME280;16713;52.916;12.834;2022-09-12T12:11:13;101194.75;;;17.34;65.42
29825;BME280;16713;52.916;12.834;2022-09-12T12:16:22;101193.91;;;17.30;66.34
29825;BME280;16713;52.916;12.834;2022-09-12T12:18:53;101189.19;;;17.38;66.57
29825;BME280;16713;52.916;12.834;2022-09-12T12:34:29;101177.94;;;17.10;65.03
29825;BME280;16713;52.916;12.834;2022-09-12T12:36:56;101185.06;;;17.14;64.70
29825;BME280;16713;52.916;12.834;2022-09-12T12:41:59;101176.44;;;17.23;64.72
29825;BME280;16713;52.916;12.834;2022-09-12T12:47:18;101182.00;;;17.23;65.00
29825;BME280;16713;52.916;12.834;2022-09-12T12:49:49;101177.25;;;17.27;66.02
29825;BME280;16713;52.916;12.834;2022-09-12T12:52:17;101174.53;;;17.37;65.36
29825;BME280;16713;52.916;12.834;2022-09-12T12:59:47;101170.16;;;17.29;62.76
29825;BME280;16713;52.916;12.834;2022-09-12T13:02:49;101171.78;;;17.44;63.98
29825;BME280;16713;52.916;12.834;2022-09-12T13:05:18;101168.59;;;17.39;65.42
29825;BME280;16713;52.916;12.834;2022-09-12T13:07:44;101166.63;;;17.43;66.66
29825;BME280;16713;52.916;12.834;2022-09-12T13:10:26;101171.81;;;17.48;65.61
29825;BME280;16713;52.916;12.834;2022-09-12T13:12:59;101166.66;;;17.50;65.09
29825;BME280;16713;52.916;12.834;2022-09-12T13:18:03;101152.84;;;17.57;64.86
29825;BME280;16713;52.916;12.834;2022-09-12T13:20:31;101155.19;;;17.62;64.90
29825;BME280;16713;52.916;12.834;2022-09-12T13:22:59;101153.66;;;17.65;64.63
29825;BME280;16713;52.916;12.834;2022-09-12T13:27:55;101150.09;;;17.71;65.21
29825;BME280;16713;52.916;12.834;2022-09-12T13:30:22;101142.56;;;17.75;64.15
29825;BME280;16713;52.916;12.834;2022-09-12T13:32:48;101145.75;;;17.77;64.33
29825;BME280;16713;52.916;12.834;2022-09-12T13:35:28;101138.22;;;17.78;63.44
29825;BME280;16713;52.916;12.834;2022-09-12T13:43:19;101145.38;;;17.82;66.80
29825;BME280;16713;52.916;12.834;2022-09-12T13:45:49;101143.38;;;17.83;65.41
29825;BME280;16713;52.916;12.834;2022-09-12T13:48:19;101136.63;;;17.84;65.92
29825;BME280;16713;52.916;12.834;2022-09-12T13:53:14;101129.97;;;17.99;64.65
29825;BME280;16713;52.916;12.834;2022-09-12T13:55:44;101129.97;;;17.99;63.60
29825;BME280;16713;52.916;12.834;2022-09-12T14:00:38;101109.28;;;17.82;62.46
29825;BME280;16713;52.916;12.834;2022-09-12T14:03:13;101112.44;;;17.77;63.42
29825;BME280;16713;52.916;12.834;2022-09-12T14:06:08;101113.66;;;17.80;64.37
29825;BME280;16713;52.916;12.834;2022-09-12T14:08:34;101113.22;;;17.74;63.90
29825;BME280;16713;52.916;12.834;2022-09-12T14:11:14;101106.09;;;17.80;65.09
29825;BME280;16713;52.916;12.834;2022-09-12T14:13:41;101098.16;;;17.75;65.51
29825;BME280;16713;52.916;12.834;2022-09-12T14:16:08;101100.53;;;17.70;65.20
29825;BME280;16713;52.916;12.834;2022-09-12T14:18:37;101104.13;;;17.67;67.24
29825;BME280;16713;52.916;12.834;2022-09-12T14:21:11;101098.16;;;17.68;65.52
29825;BME280;16713;52.916;12.834;2022-09-12T14:23:41;101095.00;;;17.66;62.92
29825;BME280;16713;52.916;12.834;2022-09-12T14:26:09;101093.00;;;17.63;63.45
29825;BME280;16713;52.916;12.834;2022-09-12T14:28:40;101091.78;;;17.61;63.12
29825;BME280;16713;52.916;12.834;2022-09-12T14:36:26;101080.84;;;16.92;67.19
29825;BME280;16713;52.916;12.834;2022-09-12T14:38:56;101091.63;;;17.15;66.85
29825;BME280;16713;52.916;12.834;2022-09-12T14:41:26;101091.28;;;17.20;68.25
29825;BME280;16713;52.916;12.834;2022-09-12T14:43:55;101088.94;;;17.29;68.05
29825;BME280;16713;52.916;12.834;2022-09-12T14:46:25;101087.78;;;17.37;68.11
29825;BME280;16713;52.916;12.834;2022-09-12T14:48:58;101087.94;;;16.93;64.43
29825;BME280;16713;52.916;12.834;2022-09-12T14:51:27;101086.97;;;17.29;64.49
29825;BME280;16713;52.916;12.834;2022-09-12T14:53:56;101083.03;;;17.37;65.86
29825;BME280;16713;52.916;12.834;2022-09-12T14:56:36;101084.63;;;17.42;66.21
29825;BME280;16713;52.916;12.834;2022-09-12T15:02:17;101077.94;;;17.57;66.79
29825;BME280;16713;52.916;12.834;2022-09-12T15:04:53;101075.94;;;17.61;66.44
29825;BME280;16713;52.916;12.834;2022-09-12T15:08:13;101075.56;;;17.63;67.17
29825;BME280;16713;52.916;12.834;2022-09-12T15:10:30;101071.59;;;17.71;66.29
29825;BME280;16713;52.916;12.834;2022-09-12T15:15:35;101072.81;;;17.73;66.60
29825;BME280;16713;52.916;12.834;2022-09-12T15:18:02;101064.09;;;17.71;66.75
29825;BME280;16713;52.916;12.834;2022-09-12T15:20:32;101063.28;;;17.74;66.96
29825;BME280;16713;52.916;12.834;2022-09-12T15:22:59;101067.25;;;17.73;69.13
29825;BME280;16713;52.916;12.834;2022-09-12T15:25:25;101064.47;;;17.77;68.33